sensor_id;sensor_type;location;lat;lon;timestamp;temperature;humidity
6841;DHT22;3458;53.678;14.080;2022-08-19T00:00:25;25.20;91.00
6841;DHT22;3458;53.678;14.080;2022-08-19T00:02:51;25.20;91.10
6841;DHT22;3458;53.678;14.080;2022-08-19T00:05:17;25.10;91.20
6841;DHT22;3458;53.678;14.080;2022-08-19T00:07:43;25.10;91.70
6841;DHT22;3458;53.678;14.080;2022-08-19T00:10:11;25.00;92.40
6841;DHT22;3458;53.678;14.080;2022-08-19T00:12:36;25.00;93.20
6841;DHT22;3458;53.678;14.080;2022-08-19T00:15:11;25.10;94.10
6841;DHT22;3458;53.678;14.080;2022-08-19T00:17:42;25.10;94.10
6841;DHT22;3458;53.678;14.080;2022-08-19T00:20:11;25.10;94.90
6841;DHT22;3458;53.678;14.080;2022-08-19T00:22:37;25.10;95.80
6841;DHT22;3458;53.678;14.080;2022-08-19T00:25:04;25.20;96.70
6841;DHT22;3458;53.678;14.080;2022-08-19T00:27:30;25.20;97.50
6841;DHT22;3458;53.678;14.080;2022-08-19T00:29:56;25.10;98.10
6841;DHT22;3458;53.678;14.080;2022-08-19T00:32:21;25.10;98.90
6841;DHT22;3458;53.678;14.080;2022-08-19T00:34:47;25.10;99.80
6841;DHT22;3458;53.678;14.080;2022-08-19T00:37:13;25.10;99.90
6841;DHT22;3458;53.678;14.080;2022-08-19T00:39:38;25.10;99.90
6841;DHT22;3458;53.678;14.080;2022-08-19T00:42:04;25.00;99.90
6841;DHT22;3458;53.678;14.080;2022-08-19T00:44:31;25.00;99.90
6841;DHT22;3458;53.678;14.080;2022-08-19T00:46:58;24.90;99.90
6841;DHT22;3458;53.678;14.080;2022-08-19T00:49:43;24.80;99.90
6841;DHT22;3458;53.678;14.080;2022-08-19T00:52:17;24.80;99.90
6841;DHT22;3458;53.678;14.080;2022-08-19T00:54:45;24.70;99.90
6841;DHT22;3458;53.678;14.080;2022-08-19T00:57:15;24.50;99.90
6841;DHT22;3458;53.678;14.080;2022-08-19T00:59:45;24.40;99.90
6841;DHT22;3458;53.678;14.080;2022-08-19T01:02:11;24.50;99.90
6841;DHT22;3458;53.678;14.080;2022-08-19T01:04:37;24.50;99.90
6841;DHT22;3458;53.678;14.080;2022-08-19T01:07:03;24.50;99.90
6841;DHT22;3458;53.678;14.080;2022-08-19T01:09:29;24.50;99.90
6841;DHT22;3458;53.678;14.080;2022-08-19T01:11:56;24.50;99.90
6841;DHT22;3458;53.678;14.080;2022-08-19T01:14:21;24.50;99.90
6841;DHT22;3458;53.678;14.080;2022-08-19T01:16:47;24.40;99.90
6841;DHT22;3458;53.678;14.080;2022-08-19T01:24:49;24.10;99.90
6841;DHT22;3458;53.678;14.080;2022-08-19T01:27:14;24.10;99.90
6841;DHT22;3458;53.678;14.080;2022-08-19T01:29:41;24.10;99.90
6841;DHT22;3458;53.678;14.080;2022-08-19T01:32:09;24.30;99.90
6841;DHT22;3458;53.678;14.080;2022-08-19T01:34:37;24.30;99.90
6841;DHT22;3458;53.678;14.080;2022-08-19T01:37:07;24.40;99.90
6841;DHT22;3458;53.678;14.080;2022-08-19T01:39:34;24.40;99.90
6841;DHT22;3458;53.678;14.080;2022-08-19T01:41:59;24.40;99.90
6841;DHT22;3458;53.678;14.080;2022-08-19T01:44:28;24.30;99.90
6841;DHT22;3458;53.678;14.080;2022-08-19T01:46:54;24.30;99.90
6841;DHT22;3458;53.678;14.080;2022-08-19T01:49:22;24.30;99.90
6841;DHT22;3458;53.678;14.080;2022-08-19T01:51:48;24.30;99.90
6841;DHT22;3458;53.678;14.080;2022-08-19T01:54:16;24.40;99.90
6841;DHT22;3458;53.678;14.080;2022-08-19T01:56:42;24.40;99.90
6841;DHT22;3458;53.678;14.080;2022-08-19T01:59:12;24.40;99.90
6841;DHT22;3458;53.678;14.080;2022-08-19T02:01:38;24.40;99.90
6841;DHT22;3458;53.678;14.080;2022-08-19T02:04:04;24.40;99.90
6841;DHT22;3458;53.678;14.080;2022-08-19T02:06:31;24.40;99.90
6841;DHT22;3458;53.678;14.080;2022-08-19T02:08:57;24.30;99.90
6841;DHT22;3458;53.678;14.080;2022-08-19T02:11:29;24.00;99.90
6841;DHT22;3458;53.678;14.080;2022-08-19T02:13:58;23.90;99.90
6841;DHT22;3458;53.678;14.080;2022-08-19T02:16:24;23.70;99.90
6841;DHT22;3458;53.678;14.080;2022-08-19T02:18:49;23.70;99.90
6841;DHT22;3458;53.678;14.080;2022-08-19T02:21:17;23.70;99.90
6841;DHT22;3458;53.678;14.080;2022-08-19T02:23:43;23.70;99.90
6841;DHT22;3458;53.678;14.080;2022-08-19T02:26:09;23.80;99.90
6841;DHT22;3458;53.678;14.080;2022-08-19T02:28:35;23.80;99.90
6841;DHT22;3458;53.678;14.080;2022-08-19T02:31:02;23.90;99.90
6841;DHT22;3458;53.678;14.080;2022-08-19T02:33:29;24.00;99.90
6841;DHT22;3458;53.678;14.080;2022-08-19T02:35:54;24.00;99.90
6841;DHT22;3458;53.678;14.080;2022-08-19T02:38:20;24.00;99.90
6841;DHT22;3458;53.678;14.080;2022-08-19T02:40:57;24.00;99.90
6841;DHT22;3458;53.678;14.080;2022-08-19T02:43:24;23.90;99.90
6841;DHT22;3458;53.678;14.080;2022-08-19T02:45:51;23.90;99.90
6841;DHT22;3458;53.678;14.080;2022-08-19T02:48:21;23.90;99.90
6841;DHT22;3458;53.678;14.080;2022-08-19T02:50:48;23.90;99.90
6841;DHT22;3458;53.678;14.080;2022-08-19T02:53:18;24.00;99.90
6841;DHT22;3458;53.678;14.080;2022-08-19T02:55:45;24.10;99.90
6841;DHT22;3458;53.678;14.080;2022-08-19T02:58:12;24.10;99.90
6841;DHT22;3458;53.678;14.080;2022-08-19T03:00:42;24.10;99.90
6841;DHT22;3458;53.678;14.080;2022-08-19T03:03:08;24.10;99.90
6841;DHT22;3458;53.678;14.080;2022-08-19T03:05:34;24.10;99.90
6841;DHT22;3458;53.678;14.080;2022-08-19T03:07:59;24.00;99.90
6841;DHT22;3458;53.678;14.080;2022-08-19T03:10:25;24.10;99.90
6841;DHT22;3458;53.678;14.080;2022-08-19T03:12:50;24.10;99.90
6841;DHT22;3458;53.678;14.080;2022-08-19T03:15:16;24.10;99.90
6841;DHT22;3458;53.678;14.080;2022-08-19T03:17:41;24.10;99.90
6841;DHT22;3458;53.678;14.080;2022-08-19T03:20:07;24.10;99.90
6841;DHT22;3458;53.678;14.080;2022-08-19T03:22:33;24.10;99.90
6841;DHT22;3458;53.678;14.080;2022-08-19T03:24:58;24.10;99.90
6841;DHT22;3458;53.678;14.080;2022-08-19T03:27:24;24.10;99.90
6841;DHT22;3458;53.678;14.080;2022-08-19T03:29:50;24.10;99.90
6841;DHT22;3458;53.678;14.080;2022-08-19T03:32:16;24.00;99.90
6841;DHT22;3458;53.678;14.080;2022-08-19T03:34:42;23.80;99.90
6841;DHT22;3458;53.678;14.080;2022-08-19T03:37:09;23.50;99.90
6841;DHT22;3458;53.678;14.080;2022-08-19T03:39:37;23.30;99.90
6841;DHT22;3458;53.678;14.080;2022-08-19T03:42:03;23.30;99.90
6841;DHT22;3458;53.678;14.080;2022-08-19T03:44:30;23.20;99.90
6841;DHT22;3458;53.678;14.080;2022-08-19T03:46:58;23.30;99.90
6841;DHT22;3458;53.678;14.080;2022-08-19T03:49:32;23.40;99.90
6841;DHT22;3458;53.678;14.080;2022-08-19T03:51:59;23.50;99.90
6841;DHT22;3458;53.678;14.080;2022-08-19T03:54:26;23.60;99.90
6841;DHT22;3458;53.678;14.080;2022-08-19T03:56:54;23.70;99.90
6841;DHT22;3458;53.678;14.080;2022-08-19T03:59:33;23.80;99.90
6841;DHT22;3458;53.678;14.080;2022-08-19T04:02:02;23.80;99.90
6841;DHT22;3458;53.678;14.080;2022-08-19T04:04:28;23.80;99.90
6841;DHT22;3458;53.678;14.080;2022-08-19T04:06:54;23.40;99.90
6841;DHT22;3458;53.678;14.080;2022-08-19T04:09:20;23.00;99.90
6841;DHT22;3458;53.678;14.080;2022-08-19T04:11:50;22.90;99.90
6841;DHT22;3458;53.678;14.080;2022-08-19T04:14:19;22.70;99.90
6841;DHT22;3458;53.678;14.080;2022-08-19T04:16:45;22.70;99.90
6841;DHT22;3458;53.678;14.080;2022-08-19T04:19:13;22.70;99.90
6841;DHT22;3458;53.678;14.080;2022-08-19T04:21:39;22.80;99.90
6841;DHT22;3458;53.678;14.080;2022-08-19T04:24:05;22.90;99.90
6841;DHT22;3458;53.678;14.080;2022-08-19T04:26:33;22.90;99.90
6841;DHT22;3458;53.678;14.080;2022-08-19T04:29:01;22.90;99.90
6841;DHT22;3458;53.678;14.080;2022-08-19T04:31:29;23.00;99.90
6841;DHT22;3458;53.678;14.080;2022-08-19T04:33:57;23.00;99.90
6841;DHT22;3458;53.678;14.080;2022-08-19T04:36:26;23.00;99.90
6841;DHT22;3458;53.678;14.080;2022-08-19T04:38:58;23.00;99.90
6841;DHT22;3458;53.678;14.080;2022-08-19T04:41:25;23.00;99.90
6841;DHT22;3458;53.678;14.080;2022-08-19T04:44:10;23.20;99.90
6841;DHT22;3458;53.678;14.080;2022-08-19T04:46:36;23.40;99.90
6841;DHT22;3458;53.678;14.080;2022-08-19T04:49:03;23.50;99.90
6841;DHT22;3458;53.678;14.080;2022-08-19T04:51:31;23.50;99.90
6841;DHT22;3458;53.678;14.080;2022-08-19T04:53:57;23.40;99.90
6841;DHT22;3458;53.678;14.080;2022-08-19T04:56:22;23.30;99.90
6841;DHT22;3458;53.678;14.080;2022-08-19T04:58:51;23.50;99.90
6841;DHT22;3458;53.678;14.080;2022-08-19T05:01:20;23.50;99.90
6841;DHT22;3458;53.678;14.080;2022-08-19T05:03:46;23.60;99.90
6841;DHT22;3458;53.678;14.080;2022-08-19T05:06:15;23.50;99.90
6841;DHT22;3458;53.678;14.080;2022-08-19T05:08:42;23.40;99.90
6841;DHT22;3458;53.678;14.080;2022-08-19T05:11:40;23.40;99.90
6841;DHT22;3458;53.678;14.080;2022-08-19T05:14:07;23.30;99.90
6841;DHT22;3458;53.678;14.080;2022-08-19T05:16:33;23.40;99.90
6841;DHT22;3458;53.678;14.080;2022-08-19T05:18:59;23.40;99.90
6841;DHT22;3458;53.678;14.080;2022-08-19T05:22:00;23.60;99.90
6841;DHT22;3458;53.678;14.080;2022-08-19T05:24:45;23.60;99.90
6841;DHT22;3458;53.678;14.080;2022-08-19T05:27:10;23.60;99.90
6841;DHT22;3458;53.678;14.080;2022-08-19T05:29:36;23.50;99.90
6841;DHT22;3458;53.678;14.080;2022-08-19T05:32:04;23.40;99.90
6841;DHT22;3458;53.678;14.080;2022-08-19T05:34:30;23.30;99.90
6841;DHT22;3458;53.678;14.080;2022-08-19T05:36:57;23.20;99.90
6841;DHT22;3458;53.678;14.080;2022-08-19T05:39:26;23.10;99.90
6841;DHT22;3458;53.678;14.080;2022-08-19T05:41:55;23.20;99.90
6841;DHT22;3458;53.678;14.080;2022-08-19T05:44:23;23.30;99.90
6841;DHT22;3458;53.678;14.080;2022-08-19T05:46:49;23.40;99.90
6841;DHT22;3458;53.678;14.080;2022-08-19T05:49:19;23.50;99.90
6841;DHT22;3458;53.678;14.080;2022-08-19T05:51:44;23.60;99.90
6841;DHT22;3458;53.678;14.080;2022-08-19T05:54:11;23.60;99.90
6841;DHT22;3458;53.678;14.080;2022-08-19T05:56:39;23.60;99.90
6841;DHT22;3458;53.678;14.080;2022-08-19T05:59:06;23.70;99.90
6841;DHT22;3458;53.678;14.080;2022-08-19T06:01:34;23.80;99.90
6841;DHT22;3458;53.678;14.080;2022-08-19T06:04:00;23.90;99.90
6841;DHT22;3458;53.678;14.080;2022-08-19T06:06:26;23.90;99.90
6841;DHT22;3458;53.678;14.080;2022-08-19T06:08:51;23.90;99.90
6841;DHT22;3458;53.678;14.080;2022-08-19T06:11:23;24.00;99.90
6841;DHT22;3458;53.678;14.080;2022-08-19T06:13:51;24.00;99.90
6841;DHT22;3458;53.678;14.080;2022-08-19T06:16:19;24.10;99.90
6841;DHT22;3458;53.678;14.080;2022-08-19T06:18:52;24.10;99.90
6841;DHT22;3458;53.678;14.080;2022-08-19T06:21:22;24.10;99.90
6841;DHT22;3458;53.678;14.080;2022-08-19T06:23:48;24.10;99.90
6841;DHT22;3458;53.678;14.080;2022-08-19T06:26:16;24.10;99.90
6841;DHT22;3458;53.678;14.080;2022-08-19T06:28:42;24.10;99.90
6841;DHT22;3458;53.678;14.080;2022-08-19T06:31:25;24.10;99.90
6841;DHT22;3458;53.678;14.080;2022-08-19T06:33:50;24.00;99.90
6841;DHT22;3458;53.678;14.080;2022-08-19T06:36:25;23.90;99.90
6841;DHT22;3458;53.678;14.080;2022-08-19T06:38:55;23.90;99.90
6841;DHT22;3458;53.678;14.080;2022-08-19T06:41:22;24.00;99.90
6841;DHT22;3458;53.678;14.080;2022-08-19T06:43:47;24.10;99.90
6841;DHT22;3458;53.678;14.080;2022-08-19T06:46:15;24.10;99.90
6841;DHT22;3458;53.678;14.080;2022-08-19T06:48:41;24.10;99.90
6841;DHT22;3458;53.678;14.080;2022-08-19T06:51:07;24.10;99.90
6841;DHT22;3458;53.678;14.080;2022-08-19T06:53:33;24.10;99.90
6841;DHT22;3458;53.678;14.080;2022-08-19T06:55:59;24.00;99.90
6841;DHT22;3458;53.678;14.080;2022-08-19T06:58:31;24.00;99.90
6841;DHT22;3458;53.678;14.080;2022-08-19T07:01:02;23.90;99.90
6841;DHT22;3458;53.678;14.080;2022-08-19T07:03:33;23.90;99.90
6841;DHT22;3458;53.678;14.080;2022-08-19T07:06:08;23.80;99.90
6841;DHT22;3458;53.678;14.080;2022-08-19T07:08:35;23.70;99.90
6841;DHT22;3458;53.678;14.080;2022-08-19T07:11:05;23.70;99.90
6841;DHT22;3458;53.678;14.080;2022-08-19T07:13:32;23.70;99.90
6841;DHT22;3458;53.678;14.080;2022-08-19T07:16:06;23.70;99.90
6841;DHT22;3458;53.678;14.080;2022-08-19T07:18:32;23.80;99.90
6841;DHT22;3458;53.678;14.080;2022-08-19T07:21:16;23.70;99.90
6841;DHT22;3458;53.678;14.080;2022-08-19T07:23:42;23.70;99.90
6841;DHT22;3458;53.678;14.080;2022-08-19T07:26:10;23.70;99.90
6841;DHT22;3458;53.678;14.080;2022-08-19T07:28:36;23.70;99.90
6841;DHT22;3458;53.678;14.080;2022-08-19T07:31:07;23.70;99.90
6841;DHT22;3458;53.678;14.080;2022-08-19T07:33:34;23.70;99.90
6841;DHT22;3458;53.678;14.080;2022-08-19T07:36:03;23.70;99.90
6841;DHT22;3458;53.678;14.080;2022-08-19T07:38:29;23.70;99.90
6841;DHT22;3458;53.678;14.080;2022-08-19T07:40:55;23.60;99.90
6841;DHT22;3458;53.678;14.080;2022-08-19T07:43:20;23.60;99.90
6841;DHT22;3458;53.678;14.080;2022-08-19T07:45:51;23.60;99.90
6841;DHT22;3458;53.678;14.080;2022-08-19T07:48:16;23.60;99.90
6841;DHT22;3458;53.678;14.080;2022-08-19T07:50:42;23.60;99.90
6841;DHT22;3458;53.678;14.080;2022-08-19T07:53:08;23.60;99.90
6841;DHT22;3458;53.678;14.080;2022-08-19T07:55:33;23.50;99.90
6841;DHT22;3458;53.678;14.080;2022-08-19T07:57:59;23.50;99.90
6841;DHT22;3458;53.678;14.080;2022-08-19T08:00:25;23.50;99.90
6841;DHT22;3458;53.678;14.080;2022-08-19T08:02:52;23.50;99.90
6841;DHT22;3458;53.678;14.080;2022-08-19T08:05:18;23.50;99.90
6841;DHT22;3458;53.678;14.080;2022-08-19T08:08:13;23.50;99.90
6841;DHT22;3458;53.678;14.080;2022-08-19T08:10:58;23.50;99.90
6841;DHT22;3458;53.678;14.080;2022-08-19T08:13:24;23.50;99.90
6841;DHT22;3458;53.678;14.080;2022-08-19T08:15:50;23.50;99.90
6841;DHT22;3458;53.678;14.080;2022-08-19T08:18:16;23.50;99.90
6841;DHT22;3458;53.678;14.080;2022-08-19T08:20:41;23.60;99.90
6841;DHT22;3458;53.678;14.080;2022-08-19T08:23:07;23.60;99.90
6841;DHT22;3458;53.678;14.080;2022-08-19T08:25:48;23.50;99.90
6841;DHT22;3458;53.678;14.080;2022-08-19T08:28:14;23.50;99.90
6841;DHT22;3458;53.678;14.080;2022-08-19T08:30:41;23.50;99.90
6841;DHT22;3458;53.678;14.080;2022-08-19T08:33:07;23.60;99.90
6841;DHT22;3458;53.678;14.080;2022-08-19T08:35:33;23.60;99.90
6841;DHT22;3458;53.678;14.080;2022-08-19T08:37:59;23.70;99.90
6841;DHT22;3458;53.678;14.080;2022-08-19T08:40:29;23.80;99.90
6841;DHT22;3458;53.678;14.080;2022-08-19T08:43:23;23.80;99.90
6841;DHT22;3458;53.678;14.080;2022-08-19T08:46:38;23.90;99.90
6841;DHT22;3458;53.678;14.080;2022-08-19T08:48:56;23.90;99.90
6841;DHT22;3458;53.678;14.080;2022-08-19T08:51:27;23.90;99.90
6841;DHT22;3458;53.678;14.080;2022-08-19T08:53:55;23.90;99.90
6841;DHT22;3458;53.678;14.080;2022-08-19T08:56:21;23.90;99.90
6841;DHT22;3458;53.678;14.080;2022-08-19T08:59:05;23.90;99.90
6841;DHT22;3458;53.678;14.080;2022-08-19T09:01:35;23.90;99.90
6841;DHT22;3458;53.678;14.080;2022-08-19T09:04:04;23.90;99.90
6841;DHT22;3458;53.678;14.080;2022-08-19T09:07:01;23.80;99.90
6841;DHT22;3458;53.678;14.080;2022-08-19T09:09:34;23.70;99.90
6841;DHT22;3458;53.678;14.080;2022-08-19T09:12:25;23.70;99.90
6841;DHT22;3458;53.678;14.080;2022-08-19T09:15:05;23.80;99.90
6841;DHT22;3458;53.678;14.080;2022-08-19T09:17:31;23.90;99.90
6841;DHT22;3458;53.678;14.080;2022-08-19T09:20:16;24.10;99.90
6841;DHT22;3458;53.678;14.080;2022-08-19T09:22:43;24.20;99.90
6841;DHT22;3458;53.678;14.080;2022-08-19T09:25:11;24.10;99.90
6841;DHT22;3458;53.678;14.080;2022-08-19T09:27:38;24.20;99.90
6841;DHT22;3458;53.678;14.080;2022-08-19T09:30:06;24.20;99.90
6841;DHT22;3458;53.678;14.080;2022-08-19T09:32:32;24.20;99.90
6841;DHT22;3458;53.678;14.080;2022-08-19T09:34:58;24.30;99.90
6841;DHT22;3458;53.678;14.080;2022-08-19T09:37:26;24.30;99.90
6841;DHT22;3458;53.678;14.080;2022-08-19T09:39:52;24.30;99.90
6841;DHT22;3458;53.678;14.080;2022-08-19T09:42:18;24.30;99.90
6841;DHT22;3458;53.678;14.080;2022-08-19T09:44:45;24.30;99.90
6841;DHT22;3458;53.678;14.080;2022-08-19T09:47:13;24.30;99.90
6841;DHT22;3458;53.678;14.080;2022-08-19T09:49:39;24.20;99.90
6841;DHT22;3458;53.678;14.080;2022-08-19T09:52:07;24.10;99.90
6841;DHT22;3458;53.678;14.080;2022-08-19T09:54:33;24.00;99.90
6841;DHT22;3458;53.678;14.080;2022-08-19T09:57:00;24.00;99.90
6841;DHT22;3458;53.678;14.080;2022-08-19T09:59:26;24.00;99.90
6841;DHT22;3458;53.678;14.080;2022-08-19T10:01:51;24.00;99.90
6841;DHT22;3458;53.678;14.080;2022-08-19T10:04:17;24.00;99.90
6841;DHT22;3458;53.678;14.080;2022-08-19T10:06:43;24.00;99.90
6841;DHT22;3458;53.678;14.080;2022-08-19T10:09:10;24.00;99.90
6841;DHT22;3458;53.678;14.080;2022-08-19T10:11:38;24.10;99.90
6841;DHT22;3458;53.678;14.080;2022-08-19T10:14:04;24.10;99.90
6841;DHT22;3458;53.678;14.080;2022-08-19T10:16:31;24.20;99.90
6841;DHT22;3458;53.678;14.080;2022-08-19T10:18:57;24.30;99.90
6841;DHT22;3458;53.678;14.080;2022-08-19T10:21:28;24.30;99.90
6841;DHT22;3458;53.678;14.080;2022-08-19T10:23:56;24.50;99.90
6841;DHT22;3458;53.678;14.080;2022-08-19T10:26:27;24.50;99.90
6841;DHT22;3458;53.678;14.080;2022-08-19T10:28:54;24.70;99.90
6841;DHT22;3458;53.678;14.080;2022-08-19T10:31:26;24.80;99.90
6841;DHT22;3458;53.678;14.080;2022-08-19T10:33:52;24.80;99.90
6841;DHT22;3458;53.678;14.080;2022-08-19T10:36:26;24.90;99.90
6841;DHT22;3458;53.678;14.080;2022-08-19T10:38:54;24.90;99.90
6841;DHT22;3458;53.678;14.080;2022-08-19T10:41:24;25.00;99.90
6841;DHT22;3458;53.678;14.080;2022-08-19T10:43:58;25.10;99.90
6841;DHT22;3458;53.678;14.080;2022-08-19T10:46:25;25.20;99.90
6841;DHT22;3458;53.678;14.080;2022-08-19T10:48:52;25.30;99.90
6841;DHT22;3458;53.678;14.080;2022-08-19T10:51:19;25.40;99.90
6841;DHT22;3458;53.678;14.080;2022-08-19T10:54:04;25.50;99.90
6841;DHT22;3458;53.678;14.080;2022-08-19T10:56:30;25.70;99.90
6841;DHT22;3458;53.678;14.080;2022-08-19T10:59:15;25.80;99.90
6841;DHT22;3458;53.678;14.080;2022-08-19T11:01:44;25.90;99.90
6841;DHT22;3458;53.678;14.080;2022-08-19T11:04:11;26.00;99.90
6841;DHT22;3458;53.678;14.080;2022-08-19T11:06:39;26.00;99.90
6841;DHT22;3458;53.678;14.080;2022-08-19T11:09:06;26.00;99.90
6841;DHT22;3458;53.678;14.080;2022-08-19T11:11:32;25.90;99.90
6841;DHT22;3458;53.678;14.080;2022-08-19T11:13:58;25.80;99.90
6841;DHT22;3458;53.678;14.080;2022-08-19T11:16:25;25.70;99.90
6841;DHT22;3458;53.678;14.080;2022-08-19T11:18:58;25.60;99.90
6841;DHT22;3458;53.678;14.080;2022-08-19T11:23:54;25.40;99.90
6841;DHT22;3458;53.678;14.080;2022-08-19T11:26:20;25.40;99.90
6841;DHT22;3458;53.678;14.080;2022-08-19T11:28:47;25.20;99.90
6841;DHT22;3458;53.678;14.080;2022-08-19T11:31:18;25.10;99.90
6841;DHT22;3458;53.678;14.080;2022-08-19T11:33:44;24.90;99.90
6841;DHT22;3458;53.678;14.080;2022-08-19T11:36:12;24.80;99.90
6841;DHT22;3458;53.678;14.080;2022-08-19T11:38:37;24.80;99.90
6841;DHT22;3458;53.678;14.080;2022-08-19T11:41:06;24.80;99.90
6841;DHT22;3458;53.678;14.080;2022-08-19T11:43:35;24.80;99.90
6841;DHT22;3458;53.678;14.080;2022-08-19T11:46:07;24.80;99.90
6841;DHT22;3458;53.678;14.080;2022-08-19T11:48:34;25.00;99.90
6841;DHT22;3458;53.678;14.080;2022-08-19T11:51:04;25.10;99.90
6841;DHT22;3458;53.678;14.080;2022-08-19T11:53:32;25.40;99.90
6841;DHT22;3458;53.678;14.080;2022-08-19T11:55:58;25.60;99.90
6841;DHT22;3458;53.678;14.080;2022-08-19T11:58:24;25.80;99.90
6841;DHT22;3458;53.678;14.080;2022-08-19T12:00:50;25.80;99.90
6841;DHT22;3458;53.678;14.080;2022-08-19T12:03:16;26.00;99.90
6841;DHT22;3458;53.678;14.080;2022-08-19T12:05:41;26.10;99.90
6841;DHT22;3458;53.678;14.080;2022-08-19T12:08:08;26.20;99.90
6841;DHT22;3458;53.678;14.080;2022-08-19T12:10:34;26.10;99.90
6841;DHT22;3458;53.678;14.080;2022-08-19T12:13:00;26.10;99.90
6841;DHT22;3458;53.678;14.080;2022-08-19T12:15:27;26.10;99.90
6841;DHT22;3458;53.678;14.080;2022-08-19T12:17:54;26.00;99.90
6841;DHT22;3458;53.678;14.080;2022-08-19T12:20:22;26.00;99.90
6841;DHT22;3458;53.678;14.080;2022-08-19T12:22:48;26.00;99.90
6841;DHT22;3458;53.678;14.080;2022-08-19T12:25:14;26.00;99.90
6841;DHT22;3458;53.678;14.080;2022-08-19T12:27:40;25.90;99.90
6841;DHT22;3458;53.678;14.080;2022-08-19T12:30:09;25.80;99.90
6841;DHT22;3458;53.678;14.080;2022-08-19T12:32:35;25.70;99.90
6841;DHT22;3458;53.678;14.080;2022-08-19T12:35:00;25.70;99.90
6841;DHT22;3458;53.678;14.080;2022-08-19T12:37:26;25.70;99.90
6841;DHT22;3458;53.678;14.080;2022-08-19T12:39:52;25.60;99.90
6841;DHT22;3458;53.678;14.080;2022-08-19T12:42:17;25.50;99.90
6841;DHT22;3458;53.678;14.080;2022-08-19T12:44:44;25.40;99.90
6841;DHT22;3458;53.678;14.080;2022-08-19T12:47:11;25.40;99.90
6841;DHT22;3458;53.678;14.080;2022-08-19T12:49:38;25.40;99.90
6841;DHT22;3458;53.678;14.080;2022-08-19T12:52:05;25.30;99.90
6841;DHT22;3458;53.678;14.080;2022-08-19T12:54:32;25.30;99.90
6841;DHT22;3458;53.678;14.080;2022-08-19T12:56:58;25.30;99.90
6841;DHT22;3458;53.678;14.080;2022-08-19T12:59:25;25.40;99.90
6841;DHT22;3458;53.678;14.080;2022-08-19T13:01:50;25.40;99.90
6841;DHT22;3458;53.678;14.080;2022-08-19T13:04:16;25.40;99.90
6841;DHT22;3458;53.678;14.080;2022-08-19T13:06:42;25.40;99.90
6841;DHT22;3458;53.678;14.080;2022-08-19T13:09:08;25.40;99.90
6841;DHT22;3458;53.678;14.080;2022-08-19T13:11:34;25.50;99.90
6841;DHT22;3458;53.678;14.080;2022-08-19T13:14:01;25.50;99.90
6841;DHT22;3458;53.678;14.080;2022-08-19T13:16:28;25.50;99.90
6841;DHT22;3458;53.678;14.080;2022-08-19T13:18:55;25.50;99.90
6841;DHT22;3458;53.678;14.080;2022-08-19T13:21:23;25.60;99.90
6841;DHT22;3458;53.678;14.080;2022-08-19T13:23:49;25.70;99.90
6841;DHT22;3458;53.678;14.080;2022-08-19T13:26:15;25.80;99.90
6841;DHT22;3458;53.678;14.080;2022-08-19T13:28:42;26.10;99.90
6841;DHT22;3458;53.678;14.080;2022-08-19T13:31:29;26.20;99.90
6841;DHT22;3458;53.678;14.080;2022-08-19T13:34:14;26.40;99.90
6841;DHT22;3458;53.678;14.080;2022-08-19T13:36:40;26.40;99.90
6841;DHT22;3458;53.678;14.080;2022-08-19T13:39:07;26.30;99.90
6841;DHT22;3458;53.678;14.080;2022-08-19T13:41:34;26.30;99.90
6841;DHT22;3458;53.678;14.080;2022-08-19T13:44:00;26.30;99.90
6841;DHT22;3458;53.678;14.080;2022-08-19T13:46:26;26.30;99.90
6841;DHT22;3458;53.678;14.080;2022-08-19T13:48:52;26.40;99.90
6841;DHT22;3458;53.678;14.080;2022-08-19T13:51:18;26.50;99.90
6841;DHT22;3458;53.678;14.080;2022-08-19T13:53:43;26.70;99.90
6841;DHT22;3458;53.678;14.080;2022-08-19T13:56:15;26.70;99.90
6841;DHT22;3458;53.678;14.080;2022-08-19T13:58:40;26.90;99.90
6841;DHT22;3458;53.678;14.080;2022-08-19T14:01:06;27.70;99.90
6841;DHT22;3458;53.678;14.080;2022-08-19T14:03:33;28.80;99.90
6841;DHT22;3458;53.678;14.080;2022-08-19T14:05:59;29.80;99.90
6841;DHT22;3458;53.678;14.080;2022-08-19T14:08:24;30.60;99.90
6841;DHT22;3458;53.678;14.080;2022-08-19T14:10:50;31.20;99.90
6841;DHT22;3458;53.678;14.080;2022-08-19T14:13:19;31.20;99.90
6841;DHT22;3458;53.678;14.080;2022-08-19T14:15:45;31.10;99.90
6841;DHT22;3458;53.678;14.080;2022-08-19T14:18:12;30.30;99.90
6841;DHT22;3458;53.678;14.080;2022-08-19T14:20:38;29.40;99.90
6841;DHT22;3458;53.678;14.080;2022-08-19T14:23:04;28.60;99.90
6841;DHT22;3458;53.678;14.080;2022-08-19T14:25:32;28.20;99.90
6841;DHT22;3458;53.678;14.080;2022-08-19T14:28:00;28.00;99.90
6841;DHT22;3458;53.678;14.080;2022-08-19T14:30:29;27.60;99.90
6841;DHT22;3458;53.678;14.080;2022-08-19T14:32:57;27.30;99.90
6841;DHT22;3458;53.678;14.080;2022-08-19T14:35:24;26.90;99.90
6841;DHT22;3458;53.678;14.080;2022-08-19T14:37:50;26.60;99.90
6841;DHT22;3458;53.678;14.080;2022-08-19T14:40:22;26.40;99.90
6841;DHT22;3458;53.678;14.080;2022-08-19T14:42:51;26.20;99.90
6841;DHT22;3458;53.678;14.080;2022-08-19T14:45:17;26.10;99.90
6841;DHT22;3458;53.678;14.080;2022-08-19T14:47:43;26.00;99.90
6841;DHT22;3458;53.678;14.080;2022-08-19T14:50:10;26.00;99.90
6841;DHT22;3458;53.678;14.080;2022-08-19T14:52:36;26.10;99.90
6841;DHT22;3458;53.678;14.080;2022-08-19T14:55:03;26.20;99.90
6841;DHT22;3458;53.678;14.080;2022-08-19T14:57:29;26.20;99.90
6841;DHT22;3458;53.678;14.080;2022-08-19T14:59:54;26.60;99.90
6841;DHT22;3458;53.678;14.080;2022-08-19T15:02:20;27.90;99.90
6841;DHT22;3458;53.678;14.080;2022-08-19T15:04:46;29.00;99.90
6841;DHT22;3458;53.678;14.080;2022-08-19T15:07:11;29.90;99.90
6841;DHT22;3458;53.678;14.080;2022-08-19T15:09:37;30.50;99.90
6841;DHT22;3458;53.678;14.080;2022-08-19T15:12:03;30.90;99.90
6841;DHT22;3458;53.678;14.080;2022-08-19T15:14:30;31.10;99.90
6841;DHT22;3458;53.678;14.080;2022-08-19T15:17:01;30.60;99.90
6841;DHT22;3458;53.678;14.080;2022-08-19T15:19:26;29.90;99.90
6841;DHT22;3458;53.678;14.080;2022-08-19T15:21:52;29.80;99.90
6841;DHT22;3458;53.678;14.080;2022-08-19T15:24:20;29.40;99.90
6841;DHT22;3458;53.678;14.080;2022-08-19T15:26:45;28.80;99.90
6841;DHT22;3458;53.678;14.080;2022-08-19T15:29:11;28.20;99.90
6841;DHT22;3458;53.678;14.080;2022-08-19T15:31:40;27.90;99.90
6841;DHT22;3458;53.678;14.080;2022-08-19T15:34:05;27.70;99.90
6841;DHT22;3458;53.678;14.080;2022-08-19T15:36:31;27.40;99.90
6841;DHT22;3458;53.678;14.080;2022-08-19T15:38:57;27.30;99.90
6841;DHT22;3458;53.678;14.080;2022-08-19T15:41:26;27.10;99.90
6841;DHT22;3458;53.678;14.080;2022-08-19T15:44:01;27.30;99.90
6841;DHT22;3458;53.678;14.080;2022-08-19T15:46:35;27.90;99.90
6841;DHT22;3458;53.678;14.080;2022-08-19T15:49:01;28.60;99.90
6841;DHT22;3458;53.678;14.080;2022-08-19T15:51:28;29.20;99.90
6841;DHT22;3458;53.678;14.080;2022-08-19T15:53:55;29.40;99.90
6841;DHT22;3458;53.678;14.080;2022-08-19T15:56:21;29.10;99.90
6841;DHT22;3458;53.678;14.080;2022-08-19T15:58:46;28.70;99.90